sensor_id;sensor_type;location;lat;lon;timestamp;temperature;humidity
55777;DHT22;54079;44.540;18.784;2022-07-23T00:00:54;23.80;49.90
55777;DHT22;54079;44.540;18.784;2022-07-23T00:03:20;23.50;51.10
55777;DHT22;54079;44.540;18.784;2022-07-23T00:05:45;23.50;51.90
55777;DHT22;54079;44.540;18.784;2022-07-23T00:08:11;23.40;52.20
55777;DHT22;54079;44.540;18.784;2022-07-23T00:10:37;23.50;51.80
55777;DHT22;54079;44.540;18.784;2022-07-23T00:13:04;23.60;50.80
55777;DHT22;54079;44.540;18.784;2022-07-23T00:15:29;23.40;50.50
55777;DHT22;54079;44.540;18.784;2022-07-23T00:17:55;23.40;51.20
55777;DHT22;54079;44.540;18.784;2022-07-23T00:20:21;23.40;52.30
55777;DHT22;54079;44.540;18.784;2022-07-23T00:22:49;23.50;50.80
55777;DHT22;54079;44.540;18.784;2022-07-23T00:25:15;23.40;50.30
55777;DHT22;54079;44.540;18.784;2022-07-23T00:27:41;23.40;50.30
55777;DHT22;54079;44.540;18.784;2022-07-23T00:30:08;23.50;49.90
55777;DHT22;54079;44.540;18.784;2022-07-23T00:32:55;23.40;52.00
55777;DHT22;54079;44.540;18.784;2022-07-23T00:35:23;23.40;52.20
55777;DHT22;54079;44.540;18.784;2022-07-23T00:37:49;23.30;52.30
55777;DHT22;54079;44.540;18.784;2022-07-23T00:40:16;23.30;51.90
55777;DHT22;54079;44.540;18.784;2022-07-23T00:42:42;23.30;52.70
55777;DHT22;54079;44.540;18.784;2022-07-23T00:45:08;23.30;52.80
55777;DHT22;54079;44.540;18.784;2022-07-23T00:47:34;23.30;53.20
55777;DHT22;54079;44.540;18.784;2022-07-23T00:50:01;23.30;52.10
55777;DHT22;54079;44.540;18.784;2022-07-23T00:52:27;23.30;51.80
55777;DHT22;54079;44.540;18.784;2022-07-23T00:54:53;23.30;52.00
55777;DHT22;54079;44.540;18.784;2022-07-23T00:57:19;23.30;52.00
55777;DHT22;54079;44.540;18.784;2022-07-23T00:59:45;23.30;52.10
55777;DHT22;54079;44.540;18.784;2022-07-23T01:02:10;23.20;53.60
55777;DHT22;54079;44.540;18.784;2022-07-23T01:04:36;23.40;52.50
55777;DHT22;54079;44.540;18.784;2022-07-23T01:07:02;23.30;54.20
55777;DHT22;54079;44.540;18.784;2022-07-23T01:09:29;23.40;53.20
55777;DHT22;54079;44.540;18.784;2022-07-23T01:11:56;23.40;51.20
55777;DHT22;54079;44.540;18.784;2022-07-23T01:14:23;23.40;51.60
55777;DHT22;54079;44.540;18.784;2022-07-23T01:16:49;23.30;51.30
55777;DHT22;54079;44.540;18.784;2022-07-23T01:19:17;23.40;51.50
55777;DHT22;54079;44.540;18.784;2022-07-23T01:21:46;23.20;52.60
55777;DHT22;54079;44.540;18.784;2022-07-23T01:24:13;23.20;52.90
55777;DHT22;54079;44.540;18.784;2022-07-23T01:26:43;23.20;53.80
55777;DHT22;54079;44.540;18.784;2022-07-23T01:29:10;23.10;53.60
55777;DHT22;54079;44.540;18.784;2022-07-23T01:31:36;23.10;55.10
55777;DHT22;54079;44.540;18.784;2022-07-23T01:34:02;23.00;54.00
55777;DHT22;54079;44.540;18.784;2022-07-23T01:36:29;23.20;54.00
55777;DHT22;54079;44.540;18.784;2022-07-23T01:38:55;23.30;53.80
55777;DHT22;54079;44.540;18.784;2022-07-23T01:41:21;23.40;54.40
55777;DHT22;54079;44.540;18.784;2022-07-23T01:43:47;23.40;53.20
55777;DHT22;54079;44.540;18.784;2022-07-23T01:46:13;23.50;52.10
55777;DHT22;54079;44.540;18.784;2022-07-23T01:48:39;23.40;53.30
55777;DHT22;54079;44.540;18.784;2022-07-23T01:51:06;23.50;53.60
55777;DHT22;54079;44.540;18.784;2022-07-23T01:53:32;23.40;53.50
55777;DHT22;54079;44.540;18.784;2022-07-23T01:55:58;23.40;52.60
55777;DHT22;54079;44.540;18.784;2022-07-23T01:58:26;23.50;53.00
55777;DHT22;54079;44.540;18.784;2022-07-23T02:00:52;23.30;54.10
55777;DHT22;54079;44.540;18.784;2022-07-23T02:03:19;23.30;54.90
55777;DHT22;54079;44.540;18.784;2022-07-23T02:05:44;23.30;54.30
55777;DHT22;54079;44.540;18.784;2022-07-23T02:08:11;23.20;53.40
55777;DHT22;54079;44.540;18.784;2022-07-23T02:10:37;23.30;53.30
55777;DHT22;54079;44.540;18.784;2022-07-23T02:13:03;23.20;53.40
55777;DHT22;54079;44.540;18.784;2022-07-23T02:15:29;23.10;54.10
55777;DHT22;54079;44.540;18.784;2022-07-23T02:17:55;23.10;55.20
55777;DHT22;54079;44.540;18.784;2022-07-23T02:20:22;23.10;54.90
55777;DHT22;54079;44.540;18.784;2022-07-23T02:22:48;23.00;55.70
55777;DHT22;54079;44.540;18.784;2022-07-23T02:25:14;22.90;55.50
55777;DHT22;54079;44.540;18.784;2022-07-23T02:27:40;23.00;55.10
55777;DHT22;54079;44.540;18.784;2022-07-23T02:30:07;23.00;54.00
55777;DHT22;54079;44.540;18.784;2022-07-23T02:32:33;23.00;54.00
55777;DHT22;54079;44.540;18.784;2022-07-23T02:34:59;23.00;54.20
55777;DHT22;54079;44.540;18.784;2022-07-23T02:37:25;23.00;53.90
55777;DHT22;54079;44.540;18.784;2022-07-23T02:39:51;23.00;53.50
55777;DHT22;54079;44.540;18.784;2022-07-23T02:42:17;23.00;54.40
55777;DHT22;54079;44.540;18.784;2022-07-23T02:44:43;23.00;54.80
55777;DHT22;54079;44.540;18.784;2022-07-23T02:47:09;23.00;55.10
55777;DHT22;54079;44.540;18.784;2022-07-23T02:49:35;23.00;54.60
55777;DHT22;54079;44.540;18.784;2022-07-23T02:52:01;23.00;54.40
55777;DHT22;54079;44.540;18.784;2022-07-23T02:54:27;22.90;56.10
55777;DHT22;54079;44.540;18.784;2022-07-23T02:56:53;22.80;55.80
55777;DHT22;54079;44.540;18.784;2022-07-23T02:59:19;22.80;55.60
55777;DHT22;54079;44.540;18.784;2022-07-23T03:01:45;22.90;55.10
55777;DHT22;54079;44.540;18.784;2022-07-23T03:04:12;22.90;55.10
55777;DHT22;54079;44.540;18.784;2022-07-23T03:06:38;22.80;57.10
55777;DHT22;54079;44.540;18.784;2022-07-23T03:09:06;22.90;55.90
55777;DHT22;54079;44.540;18.784;2022-07-23T03:11:31;22.80;56.20
55777;DHT22;54079;44.540;18.784;2022-07-23T03:13:57;22.90;56.10
55777;DHT22;54079;44.540;18.784;2022-07-23T03:16:23;22.80;57.20
55777;DHT22;54079;44.540;18.784;2022-07-23T03:18:49;22.80;56.30
55777;DHT22;54079;44.540;18.784;2022-07-23T03:21:15;22.80;56.20
55777;DHT22;54079;44.540;18.784;2022-07-23T03:23:41;22.80;55.70
55777;DHT22;54079;44.540;18.784;2022-07-23T03:26:07;22.80;55.40
55777;DHT22;54079;44.540;18.784;2022-07-23T03:28:33;22.90;55.20
55777;DHT22;54079;44.540;18.784;2022-07-23T03:30:59;22.90;56.10
55777;DHT22;54079;44.540;18.784;2022-07-23T03:33:25;23.00;57.10
55777;DHT22;54079;44.540;18.784;2022-07-23T03:35:50;22.90;56.70
55777;DHT22;54079;44.540;18.784;2022-07-23T03:38:16;23.00;56.00
55777;DHT22;54079;44.540;18.784;2022-07-23T03:40:42;23.10;55.30
55777;DHT22;54079;44.540;18.784;2022-07-23T03:43:08;23.20;55.10
55777;DHT22;54079;44.540;18.784;2022-07-23T03:45:35;23.20;55.60
55777;DHT22;54079;44.540;18.784;2022-07-23T03:48:01;23.20;55.60
55777;DHT22;54079;44.540;18.784;2022-07-23T03:50:27;23.30;56.60
55777;DHT22;54079;44.540;18.784;2022-07-23T03:52:53;23.40;55.80
55777;DHT22;54079;44.540;18.784;2022-07-23T03:55:19;23.40;55.80
55777;DHT22;54079;44.540;18.784;2022-07-23T03:57:45;23.50;55.10
55777;DHT22;54079;44.540;18.784;2022-07-23T04:00:12;23.60;55.80
55777;DHT22;54079;44.540;18.784;2022-07-23T04:02:39;23.50;57.20
55777;DHT22;54079;44.540;18.784;2022-07-23T04:05:06;23.40;57.50
55777;DHT22;54079;44.540;18.784;2022-07-23T04:07:32;23.30;57.10
55777;DHT22;54079;44.540;18.784;2022-07-23T04:09:58;23.20;56.90
55777;DHT22;54079;44.540;18.784;2022-07-23T04:12:24;23.30;57.50
55777;DHT22;54079;44.540;18.784;2022-07-23T04:14:50;23.40;57.00
55777;DHT22;54079;44.540;18.784;2022-07-23T04:17:16;23.30;57.80
55777;DHT22;54079;44.540;18.784;2022-07-23T04:19:42;23.20;58.50
55777;DHT22;54079;44.540;18.784;2022-07-23T04:22:10;23.20;58.20
55777;DHT22;54079;44.540;18.784;2022-07-23T04:24:36;23.30;58.60
55777;DHT22;54079;44.540;18.784;2022-07-23T04:27:03;23.40;58.30
55777;DHT22;54079;44.540;18.784;2022-07-23T04:29:29;23.60;58.70
55777;DHT22;54079;44.540;18.784;2022-07-23T04:31:55;23.80;57.50
55777;DHT22;54079;44.540;18.784;2022-07-23T04:34:21;24.30;55.80
55777;DHT22;54079;44.540;18.784;2022-07-23T04:36:47;24.90;54.00
55777;DHT22;54079;44.540;18.784;2022-07-23T04:39:13;25.50;52.70
55777;DHT22;54079;44.540;18.784;2022-07-23T04:41:39;25.80;53.10
55777;DHT22;54079;44.540;18.784;2022-07-23T04:44:05;27.20;49.40
55777;DHT22;54079;44.540;18.784;2022-07-23T04:46:31;29.50;46.60
55777;DHT22;54079;44.540;18.784;2022-07-23T04:48:57;31.20;46.10
55777;DHT22;54079;44.540;18.784;2022-07-23T04:51:23;32.50;44.40
55777;DHT22;54079;44.540;18.784;2022-07-23T04:53:49;33.50;43.00
55777;DHT22;54079;44.540;18.784;2022-07-23T04:56:15;34.10;42.40
55777;DHT22;54079;44.540;18.784;2022-07-23T04:58:41;34.90;41.30
55777;DHT22;54079;44.540;18.784;2022-07-23T05:01:07;35.20;40.40
55777;DHT22;54079;44.540;18.784;2022-07-23T05:03:33;36.00;39.50
55777;DHT22;54079;44.540;18.784;2022-07-23T05:05:59;36.50;38.90
55777;DHT22;54079;44.540;18.784;2022-07-23T05:08:26;37.30;38.50
55777;DHT22;54079;44.540;18.784;2022-07-23T05:10:52;37.80;38.70
55777;DHT22;54079;44.540;18.784;2022-07-23T05:13:18;38.60;37.50
55777;DHT22;54079;44.540;18.784;2022-07-23T05:15:44;39.00;37.10
55777;DHT22;54079;44.540;18.784;2022-07-23T05:18:11;39.90;36.20
55777;DHT22;54079;44.540;18.784;2022-07-23T05:20:37;40.50;35.20
55777;DHT22;54079;44.540;18.784;2022-07-23T05:23:03;40.80;35.40
55777;DHT22;54079;44.540;18.784;2022-07-23T05:25:29;41.30;34.70
55777;DHT22;54079;44.540;18.784;2022-07-23T05:27:55;41.70;34.40
55777;DHT22;54079;44.540;18.784;2022-07-23T05:30:21;42.30;34.20
55777;DHT22;54079;44.540;18.784;2022-07-23T05:32:47;42.90;33.90
55777;DHT22;54079;44.540;18.784;2022-07-23T05:35:13;42.90;33.80
55777;DHT22;54079;44.540;18.784;2022-07-23T05:37:39;42.70;33.00
55777;DHT22;54079;44.540;18.784;2022-07-23T05:40:07;42.90;33.20
55777;DHT22;54079;44.540;18.784;2022-07-23T05:42:39;43.60;33.80
55777;DHT22;54079;44.540;18.784;2022-07-23T05:45:06;44.20;33.60
55777;DHT22;54079;44.540;18.784;2022-07-23T05:47:42;44.70;33.20
55777;DHT22;54079;44.540;18.784;2022-07-23T05:50:08;45.30;32.60
55777;DHT22;54079;44.540;18.784;2022-07-23T05:52:34;45.30;33.20
55777;DHT22;54079;44.540;18.784;2022-07-23T05:55:00;45.40;33.80
55777;DHT22;54079;44.540;18.784;2022-07-23T05:57:26;46.20;33.80
55777;DHT22;54079;44.540;18.784;2022-07-23T05:59:52;46.20;33.40
55777;DHT22;54079;44.540;18.784;2022-07-23T06:02:18;46.70;32.30
55777;DHT22;54079;44.540;18.784;2022-07-23T06:04:44;46.80;32.40
55777;DHT22;54079;44.540;18.784;2022-07-23T06:07:11;47.10;32.40
55777;DHT22;54079;44.540;18.784;2022-07-23T06:09:37;47.70;32.40
55777;DHT22;54079;44.540;18.784;2022-07-23T06:12:03;48.10;32.40
55777;DHT22;54079;44.540;18.784;2022-07-23T06:14:29;48.50;31.80
55777;DHT22;54079;44.540;18.784;2022-07-23T06:16:55;49.10;31.30
55777;DHT22;54079;44.540;18.784;2022-07-23T06:19:21;49.30;31.40
55777;DHT22;54079;44.540;18.784;2022-07-23T06:21:46;49.60;31.70
55777;DHT22;54079;44.540;18.784;2022-07-23T06:24:12;49.70;30.30
55777;DHT22;54079;44.540;18.784;2022-07-23T06:26:38;50.00;31.00
55777;DHT22;54079;44.540;18.784;2022-07-23T06:29:04;50.50;30.80
55777;DHT22;54079;44.540;18.784;2022-07-23T06:31:30;50.30;30.40
55777;DHT22;54079;44.540;18.784;2022-07-23T06:33:56;50.70;30.30
55777;DHT22;54079;44.540;18.784;2022-07-23T06:36:22;50.80;30.20
55777;DHT22;54079;44.540;18.784;2022-07-23T06:38:48;51.10;30.00
55777;DHT22;54079;44.540;18.784;2022-07-23T06:41:14;51.10;29.90
55777;DHT22;54079;44.540;18.784;2022-07-23T06:43:40;51.00;30.00
55777;DHT22;54079;44.540;18.784;2022-07-23T06:46:06;51.20;30.00
55777;DHT22;54079;44.540;18.784;2022-07-23T06:48:32;51.70;29.90
55777;DHT22;54079;44.540;18.784;2022-07-23T06:50:59;52.40;29.90
55777;DHT22;54079;44.540;18.784;2022-07-23T06:53:25;52.50;29.80
55777;DHT22;54079;44.540;18.784;2022-07-23T06:55:51;53.10;29.70
55777;DHT22;54079;44.540;18.784;2022-07-23T06:58:17;53.30;29.40
55777;DHT22;54079;44.540;18.784;2022-07-23T07:00:44;53.50;29.30
55777;DHT22;54079;44.540;18.784;2022-07-23T07:03:10;53.40;29.40
55777;DHT22;54079;44.540;18.784;2022-07-23T07:05:36;53.50;29.40
55777;DHT22;54079;44.540;18.784;2022-07-23T07:08:02;53.60;29.40
55777;DHT22;54079;44.540;18.784;2022-07-23T07:10:28;54.10;29.40
55777;DHT22;54079;44.540;18.784;2022-07-23T07:12:54;54.30;29.00
55777;DHT22;54079;44.540;18.784;2022-07-23T07:15:20;54.50;29.00
55777;DHT22;54079;44.540;18.784;2022-07-23T07:17:46;54.50;28.90
55777;DHT22;54079;44.540;18.784;2022-07-23T07:20:13;54.60;28.80
55777;DHT22;54079;44.540;18.784;2022-07-23T07:22:38;54.80;28.60
55777;DHT22;54079;44.540;18.784;2022-07-23T07:25:05;55.20;28.50
55777;DHT22;54079;44.540;18.784;2022-07-23T07:27:31;54.40;28.30
55777;DHT22;54079;44.540;18.784;2022-07-23T07:29:57;55.00;28.60
55777;DHT22;54079;44.540;18.784;2022-07-23T07:32:23;55.50;28.40
55777;DHT22;54079;44.540;18.784;2022-07-23T07:34:49;55.80;28.30
55777;DHT22;54079;44.540;18.784;2022-07-23T07:37:15;55.70;28.20
55777;DHT22;54079;44.540;18.784;2022-07-23T07:39:41;55.80;28.30
55777;DHT22;54079;44.540;18.784;2022-07-23T07:42:07;55.80;28.30
55777;DHT22;54079;44.540;18.784;2022-07-23T07:44:33;55.90;28.20
55777;DHT22;54079;44.540;18.784;2022-07-23T07:46:59;55.90;28.20
55777;DHT22;54079;44.540;18.784;2022-07-23T07:49:25;55.70;28.20
55777;DHT22;54079;44.540;18.784;2022-07-23T07:51:50;56.10;27.80
55777;DHT22;54079;44.540;18.784;2022-07-23T07:54:16;56.30;27.80
55777;DHT22;54079;44.540;18.784;2022-07-23T07:56:42;56.50;27.90
55777;DHT22;54079;44.540;18.784;2022-07-23T07:59:08;56.30;27.70
55777;DHT22;54079;44.540;18.784;2022-07-23T08:01:34;56.50;27.60
55777;DHT22;54079;44.540;18.784;2022-07-23T08:04:00;56.50;27.20
55777;DHT22;54079;44.540;18.784;2022-07-23T08:06:26;56.50;26.50
55777;DHT22;54079;44.540;18.784;2022-07-23T08:08:52;56.30;26.70
55777;DHT22;54079;44.540;18.784;2022-07-23T08:11:18;56.60;26.80
55777;DHT22;54079;44.540;18.784;2022-07-23T08:13:44;57.10;27.00
55777;DHT22;54079;44.540;18.784;2022-07-23T08:16:19;57.50;27.00
55777;DHT22;54079;44.540;18.784;2022-07-23T08:18:45;57.40;27.00
55777;DHT22;54079;44.540;18.784;2022-07-23T08:21:11;57.20;27.00
55777;DHT22;54079;44.540;18.784;2022-07-23T08:23:37;57.20;27.10
55777;DHT22;54079;44.540;18.784;2022-07-23T08:26:03;57.10;26.60
55777;DHT22;54079;44.540;18.784;2022-07-23T08:28:29;57.20;27.00
55777;DHT22;54079;44.540;18.784;2022-07-23T08:30:58;57.40;27.10
55777;DHT22;54079;44.540;18.784;2022-07-23T08:33:25;57.50;27.50
55777;DHT22;54079;44.540;18.784;2022-07-23T08:35:51;57.50;27.60
55777;DHT22;54079;44.540;18.784;2022-07-23T08:38:22;57.90;27.10
55777;DHT22;54079;44.540;18.784;2022-07-23T08:40:51;58.00;26.80
55777;DHT22;54079;44.540;18.784;2022-07-23T08:43:23;58.10;26.80
55777;DHT22;54079;44.540;18.784;2022-07-23T08:45:51;58.20;26.80
55777;DHT22;54079;44.540;18.784;2022-07-23T08:48:22;58.10;26.70
55777;DHT22;54079;44.540;18.784;2022-07-23T08:50:50;58.00;26.60
55777;DHT22;54079;44.540;18.784;2022-07-23T08:53:17;58.00;26.60
55777;DHT22;54079;44.540;18.784;2022-07-23T08:55:49;57.80;26.60
55777;DHT22;54079;44.540;18.784;2022-07-23T08:58:15;57.70;26.60
55777;DHT22;54079;44.540;18.784;2022-07-23T09:00:42;57.60;26.70
55777;DHT22;54079;44.540;18.784;2022-07-23T09:03:16;57.30;26.60
55777;DHT22;54079;44.540;18.784;2022-07-23T09:05:42;56.50;26.60
55777;DHT22;54079;44.540;18.784;2022-07-23T09:08:12;55.40;26.80
55777;DHT22;54079;44.540;18.784;2022-07-23T09:10:57;54.20;27.10
55777;DHT22;54079;44.540;18.784;2022-07-23T09:16:06;50.10;28.50
55777;DHT22;54079;44.540;18.784;2022-07-23T09:18:42;48.50;28.70
55777;DHT22;54079;44.540;18.784;2022-07-23T09:21:10;46.70;29.50
55777;DHT22;54079;44.540;18.784;2022-07-23T09:31:22;42.30;32.20
55777;DHT22;54079;44.540;18.784;2022-07-23T09:33:49;41.90;32.60
55777;DHT22;54079;44.540;18.784;2022-07-23T09:36:15;41.60;32.00
55777;DHT22;54079;44.540;18.784;2022-07-23T09:38:50;41.00;31.60
55777;DHT22;54079;44.540;18.784;2022-07-23T09:41:17;40.90;32.90
55777;DHT22;54079;44.540;18.784;2022-07-23T09:43:43;40.80;33.00
55777;DHT22;54079;44.540;18.784;2022-07-23T09:46:22;40.70;33.30
55777;DHT22;54079;44.540;18.784;2022-07-23T09:48:53;40.40;33.90
55777;DHT22;54079;44.540;18.784;2022-07-23T09:51:19;40.20;33.70
55777;DHT22;54079;44.540;18.784;2022-07-23T09:53:54;40.20;34.10
55777;DHT22;54079;44.540;18.784;2022-07-23T09:56:20;40.20;32.80
55777;DHT22;54079;44.540;18.784;2022-07-23T09:58:50;40.20;33.50
55777;DHT22;54079;44.540;18.784;2022-07-23T10:01:28;40.10;33.20
55777;DHT22;54079;44.540;18.784;2022-07-23T10:03:54;40.10;33.00
55777;DHT22;54079;44.540;18.784;2022-07-23T10:06:21;40.20;31.90
55777;DHT22;54079;44.540;18.784;2022-07-23T10:08:48;40.10;32.20
55777;DHT22;54079;44.540;18.784;2022-07-23T10:11:16;39.80;31.10
55777;DHT22;54079;44.540;18.784;2022-07-23T10:13:43;39.80;31.20
55777;DHT22;54079;44.540;18.784;2022-07-23T10:16:18;39.50;31.00
55777;DHT22;54079;44.540;18.784;2022-07-23T10:18:46;39.60;32.20
55777;DHT22;54079;44.540;18.784;2022-07-23T10:21:21;39.60;33.10
55777;DHT22;54079;44.540;18.784;2022-07-23T10:24:10;39.50;33.30
55777;DHT22;54079;44.540;18.784;2022-07-23T10:26:41;39.40;33.40
55777;DHT22;54079;44.540;18.784;2022-07-23T10:29:21;39.30;34.20
55777;DHT22;54079;44.540;18.784;2022-07-23T10:34:55;39.20;34.20
55777;DHT22;54079;44.540;18.784;2022-07-23T10:37:38;39.30;33.30
55777;DHT22;54079;44.540;18.784;2022-07-23T10:40:20;39.40;33.00
55777;DHT22;54079;44.540;18.784;2022-07-23T10:42:49;39.10;32.50
55777;DHT22;54079;44.540;18.784;2022-07-23T10:45:34;38.90;32.60
55777;DHT22;54079;44.540;18.784;2022-07-23T10:48:24;39.00;33.50
55777;DHT22;54079;44.540;18.784;2022-07-23T10:51:12;39.10;32.40
55777;DHT22;54079;44.540;18.784;2022-07-23T10:59:20;39.10;33.60
55777;DHT22;54079;44.540;18.784;2022-07-23T11:01:46;39.10;33.90
55777;DHT22;54079;44.540;18.784;2022-07-23T11:04:12;39.10;33.20
55777;DHT22;54079;44.540;18.784;2022-07-23T11:15:08;39.10;32.90
55777;DHT22;54079;44.540;18.784;2022-07-23T11:25:13;38.90;33.40
55777;DHT22;54079;44.540;18.784;2022-07-23T11:27:45;39.00;33.30
55777;DHT22;54079;44.540;18.784;2022-07-23T11:35:37;39.20;31.60
55777;DHT22;54079;44.540;18.784;2022-07-23T11:40:46;39.30;32.40
55777;DHT22;54079;44.540;18.784;2022-07-23T11:43:13;39.30;32.50
55777;DHT22;54079;44.540;18.784;2022-07-23T11:45:42;39.40;32.40
55777;DHT22;54079;44.540;18.784;2022-07-23T11:48:17;39.40;31.70
55777;DHT22;54079;44.540;18.784;2022-07-23T11:50:43;39.60;31.80
55777;DHT22;54079;44.540;18.784;2022-07-23T11:53:09;39.70;32.00
55777;DHT22;54079;44.540;18.784;2022-07-23T11:55:35;39.80;31.90
55777;DHT22;54079;44.540;18.784;2022-07-23T11:58:01;39.70;30.30
55777;DHT22;54079;44.540;18.784;2022-07-23T12:00:29;39.50;30.90
55777;DHT22;54079;44.540;18.784;2022-07-23T12:02:57;39.50;30.40
55777;DHT22;54079;44.540;18.784;2022-07-23T12:05:32;39.50;31.30
55777;DHT22;54079;44.540;18.784;2022-07-23T12:07:59;39.30;28.60
55777;DHT22;54079;44.540;18.784;2022-07-23T12:10:29;39.50;30.50
55777;DHT22;54079;44.540;18.784;2022-07-23T12:12:57;39.50;29.90
55777;DHT22;54079;44.540;18.784;2022-07-23T12:15:29;39.50;29.30
55777;DHT22;54079;44.540;18.784;2022-07-23T12:17:58;39.60;30.00
55777;DHT22;54079;44.540;18.784;2022-07-23T12:20:27;39.60;30.60
55777;DHT22;54079;44.540;18.784;2022-07-23T12:22:56;39.30;30.60
55777;DHT22;54079;44.540;18.784;2022-07-23T12:25:25;39.20;30.40
55777;DHT22;54079;44.540;18.784;2022-07-23T12:28:13;39.20;31.10
55777;DHT22;54079;44.540;18.784;2022-07-23T12:30:42;39.00;31.30
55777;DHT22;54079;44.540;18.784;2022-07-23T12:33:11;38.90;31.30
55777;DHT22;54079;44.540;18.784;2022-07-23T12:35:47;38.80;31.20
55777;DHT22;54079;44.540;18.784;2022-07-23T12:38:19;38.90;31.10
55777;DHT22;54079;44.540;18.784;2022-07-23T12:40:50;39.00;30.10
55777;DHT22;54079;44.540;18.784;2022-07-23T12:43:23;39.10;29.70
55777;DHT22;54079;44.540;18.784;2022-07-23T12:45:50;39.10;30.20
55777;DHT22;54079;44.540;18.784;2022-07-23T12:48:19;39.10;30.00
55777;DHT22;54079;44.540;18.784;2022-07-23T12:50:51;39.00;29.60
55777;DHT22;54079;44.540;18.784;2022-07-23T12:56:13;38.90;29.30
55777;DHT22;54079;44.540;18.784;2022-07-23T12:58:42;38.90;29.80
55777;DHT22;54079;44.540;18.784;2022-07-23T13:01:08;39.00;30.40
55777;DHT22;54079;44.540;18.784;2022-07-23T13:03:41;39.10;30.40
55777;DHT22;54079;44.540;18.784;2022-07-23T13:06:09;39.10;30.40
55777;DHT22;54079;44.540;18.784;2022-07-23T13:08:37;39.20;31.10
55777;DHT22;54079;44.540;18.784;2022-07-23T13:11:04;39.00;29.80
55777;DHT22;54079;44.540;18.784;2022-07-23T13:13:32;39.10;30.90
55777;DHT22;54079;44.540;18.784;2022-07-23T13:15:59;39.10;31.00
55777;DHT22;54079;44.540;18.784;2022-07-23T13:18:26;39.00;30.90
55777;DHT22;54079;44.540;18.784;2022-07-23T13:20:53;39.00;30.90
55777;DHT22;54079;44.540;18.784;2022-07-23T13:23:20;38.90;31.00
55777;DHT22;54079;44.540;18.784;2022-07-23T13:25:48;38.90;30.00
55777;DHT22;54079;44.540;18.784;2022-07-23T13:28:15;39.00;30.60
55777;DHT22;54079;44.540;18.784;2022-07-23T13:30:43;39.00;30.90
55777;DHT22;54079;44.540;18.784;2022-07-23T13:33:09;39.10;30.30
55777;DHT22;54079;44.540;18.784;2022-07-23T13:35:36;39.20;31.00
55777;DHT22;54079;44.540;18.784;2022-07-23T13:38:04;39.20;31.00
55777;DHT22;54079;44.540;18.784;2022-07-23T13:40:35;39.20;30.50
55777;DHT22;54079;44.540;18.784;2022-07-23T13:43:02;39.20;30.20
55777;DHT22;54079;44.540;18.784;2022-07-23T13:45:28;39.30;30.80
55777;DHT22;54079;44.540;18.784;2022-07-23T13:47:54;39.50;31.10
55777;DHT22;54079;44.540;18.784;2022-07-23T13:50:19;39.50;30.00
55777;DHT22;54079;44.540;18.784;2022-07-23T13:52:45;39.50;30.90
55777;DHT22;54079;44.540;18.784;2022-07-23T13:55:11;39.40;30.90
55777;DHT22;54079;44.540;18.784;2022-07-23T13:57:37;39.40;31.20
55777;DHT22;54079;44.540;18.784;2022-07-23T14:00:04;39.30;30.80
55777;DHT22;54079;44.540;18.784;2022-07-23T14:02:32;39.20;31.10
55777;DHT22;54079;44.540;18.784;2022-07-23T14:04:58;39.20;31.10
55777;DHT22;54079;44.540;18.784;2022-07-23T14:07:24;39.20;31.20
55777;DHT22;54079;44.540;18.784;2022-07-23T14:09:50;39.20;30.90
55777;DHT22;54079;44.540;18.784;2022-07-23T14:12:16;39.00;30.90
55777;DHT22;54079;44.540;18.784;2022-07-23T14:14:42;39.00;30.80
55777;DHT22;54079;44.540;18.784;2022-07-23T14:17:09;39.00;31.90
55777;DHT22;54079;44.540;18.784;2022-07-23T14:19:34;38.90;32.90
55777;DHT22;54079;44.540;18.784;2022-07-23T14:22:00;38.80;33.30
55777;DHT22;54079;44.540;18.784;2022-07-23T14:24:26;38.70;33.60
55777;DHT22;54079;44.540;18.784;2022-07-23T14:26:52;38.70;34.10
55777;DHT22;54079;44.540;18.784;2022-07-23T14:29:18;38.70;34.20
55777;DHT22;54079;44.540;18.784;2022-07-23T14:31:44;38.60;33.80
55777;DHT22;54079;44.540;18.784;2022-07-23T14:34:10;38.70;34.30
55777;DHT22;54079;44.540;18.784;2022-07-23T14:36:37;38.60;34.10
55777;DHT22;54079;44.540;18.784;2022-07-23T14:39:03;38.70;34.40
55777;DHT22;54079;44.540;18.784;2022-07-23T14:41:29;38.70;34.30
55777;DHT22;54079;44.540;18.784;2022-07-23T14:43:55;38.70;34.60
55777;DHT22;54079;44.540;18.784;2022-07-23T14:46:21;38.80;34.70
55777;DHT22;54079;44.540;18.784;2022-07-23T14:48:47;38.70;34.20
55777;DHT22;54079;44.540;18.784;2022-07-23T14:51:13;38.70;34.50
55777;DHT22;54079;44.540;18.784;2022-07-23T14:53:39;38.70;34.50
55777;DHT22;54079;44.540;18.784;2022-07-23T14:56:05;38.70;34.10
55777;DHT22;54079;44.540;18.784;2022-07-23T14:58:31;38.60;34.00
55777;DHT22;54079;44.540;18.784;2022-07-23T15:00:57;38.70;34.40
55777;DHT22;54079;44.540;18.784;2022-07-23T15:03:23;38.50;34.60
55777;DHT22;54079;44.540;18.784;2022-07-23T15:05:49;38.50;34.20
55777;DHT22;54079;44.540;18.784;2022-07-23T15:08:17;38.40;34.20
55777;DHT22;54079;44.540;18.784;2022-07-23T15:10:43;38.30;34.50
55777;DHT22;54079;44.540;18.784;2022-07-23T15:13:09;38.30;34.50
55777;DHT22;54079;44.540;18.784;2022-07-23T15:15:36;38.40;34.00
55777;DHT22;54079;44.540;18.784;2022-07-23T15:18:03;38.30;34.20
55777;DHT22;54079;44.540;18.784;2022-07-23T15:20:29;38.30;34.60
55777;DHT22;54079;44.540;18.784;2022-07-23T15:22:55;38.20;33.90
55777;DHT22;54079;44.540;18.784;2022-07-23T15:25:21;38.10;34.10
55777;DHT22;54079;44.540;18.784;2022-07-23T15:27:47;38.10;34.20
55777;DHT22;54079;44.540;18.784;2022-07-23T15:30:13;38.00;33.90
55777;DHT22;54079;44.540;18.784;2022-07-23T15:32:39;38.00;34.30
55777;DHT22;54079;44.540;18.784;2022-07-23T15:35:05;38.00;34.60
55777;DHT22;54079;44.540;18.784;2022-07-23T15:37:34;38.00;34.30
55777;DHT22;54079;44.540;18.784;2022-07-23T15:40:01;37.90;34.40
55777;DHT22;54079;44.540;18.784;2022-07-23T15:42:29;37.80;33.60
55777;DHT22;54079;44.540;18.784;2022-07-23T15:44:55;37.80;34.00
55777;DHT22;54079;44.540;18.784;2022-07-23T15:47:21;37.80;33.90
55777;DHT22;54079;44.540;18.784;2022-07-23T15:49:47;37.70;33.70
55777;DHT22;54079;44.540;18.784;2022-07-23T15:52:14;37.60;33.90
55777;DHT22;54079;44.540;18.784;2022-07-23T15:54:40;37.60;34.40
55777;DHT22;54079;44.540;18.784;2022-07-23T15:57:06;37.50;34.10
55777;DHT22;54079;44.540;18.784;2022-07-23T15:59:32;37.50;34.50
55777;DHT22;54079;44.540;18.784;2022-07-23T16:01:58;37.40;34.60